Time;durP1;ratioP1;P1;durP2;ratioP2;P2;SDS_P1;SDS_P2;PMS_P1;PMS_P2;Temp;Humidity;BMP_temperature;BMP_pressure;BME280_temperature;BME280_humidity;BME280_pressure;Samples;Min_cycle;Max_cycle;Signal;HPM_P1;HPM_P2
2022/02/01 00:01:49;;;;;;;17.80;4.10;;;4.40;89.70;;;;;;5032342;28;20112;-72
2022/02/01 00:04:19;;;;;;;18.08;6.18;;;4.40;89.80;;;;;;5038236;28;20039;-72
2022/02/01 00:07:00;;;;;;;15.10;4.13;;;4.40;90.00;;;;;;5036473;28;20040;-73
2022/02/01 00:40:34;;;;;;;15.90;4.97;;;4.40;90.00;;;;;;5038263;28;20045;-72
2022/02/01 00:43:00;;;;;;;16.33;5.05;;;4.40;90.00;;;;;;5037741;28;20085;-73
2022/02/01 00:45:26;;;;;;;16.63;5.65;;;4.40;90.40;;;;;;5035392;28;20356;-72
2022/02/01 00:47:52;;;;;;;20.98;4.95;;;4.40;90.00;;;;;;5040031;28;20472;-73
2022/02/01 00:50:18;;;;;;;14.77;5.63;;;4.30;90.20;;;;;;5033231;28;20025;-73
2022/02/01 00:52:45;;;;;;;19.40;5.75;;;4.40;90.30;;;;;;5040594;28;20044;-73
2022/02/01 00:55:11;;;;;;;23.02;6.28;;;4.30;90.40;;;;;;5039015;28;20036;-72
2022/02/01 00:57:37;;;;;;;22.35;5.65;;;4.30;90.30;;;;;;5041770;28;20132;-73
2022/02/01 01:00:08;;;;;;;26.60;7.30;;;4.30;90.40;;;;;;5039355;28;20037;-73
2022/02/01 01:02:34;;;;;;;18.00;5.53;;;4.30;90.40;;;;;;5033059;28;20060;-72
2022/02/01 01:05:00;;;;;;;18.90;5.80;;;4.30;90.50;;;;;;5041964;28;20067;-72
2022/02/01 01:07:26;;;;;;;14.55;5.00;;;4.30;90.60;;;;;;5039177;28;20033;-72
2022/02/01 01:09:53;;;;;;;16.48;5.53;;;4.30;90.80;;;;;;5037799;28;20032;-73
2022/02/01 01:12:19;;;;;;;21.48;6.20;;;4.40;90.70;;;;;;5037240;28;20051;-73
2022/02/01 01:44:57;;;;;;;27.38;7.05;;;4.70;90.30;;;;;;5034904;28;20036;-72
2022/02/01 01:55:34;;;;;;;15.57;5.47;;;4.80;89.90;;;;;;5039871;28;20482;-72
2022/02/01 01:58:01;;;;;;;20.50;6.85;;;4.70;89.80;;;;;;5039053;28;20382;-72
2022/02/01 02:00:48;;;;;;;20.67;7.05;;;4.70;89.90;;;;;;5039936;28;20037;-72
2022/02/01 02:03:14;;;;;;;20.10;8.02;;;4.70;89.50;;;;;;5043626;28;20029;-72
2022/02/01 02:05:39;;;;;;;18.40;6.55;;;4.70;89.50;;;;;;5042238;28;20035;-72
2022/02/01 02:08:05;;;;;;;16.05;6.63;;;4.60;89.40;;;;;;5043128;28;20052;-72
2022/02/01 02:10:37;;;;;;;20.92;6.60;;;4.70;89.90;;;;;;5038214;28;20497;-72
2022/02/01 02:16:00;;;;;;;21.27;6.60;;;4.70;89.90;;;;;;5037878;28;20036;-72
2022/02/01 02:18:28;;;;;;;14.93;6.07;;;4.70;89.60;;;;;;5040345;28;20177;-72
2022/02/01 02:20:56;;;;;;;19.20;6.60;;;4.80;89.60;;;;;;5043576;28;20136;-72
2022/02/01 02:23:22;;;;;;;26.08;7.82;;;4.80;89.60;;;;;;5039343;28;20070;-72
2022/02/01 02:25:49;;;;;;;22.10;6.72;;;4.90;89.10;;;;;;5037275;28;20021;-72
2022/02/01 02:28:17;;;;;;;18.73;7.15;;;4.80;89.10;;;;;;5038280;28;20033;-72
2022/02/01 02:30:46;;;;;;;26.08;7.78;;;4.70;89.40;;;;;;5040084;28;20305;-73
2022/02/01 02:33:15;;;;;;;18.00;6.63;;;4.70;89.60;;;;;;5037553;28;20126;-72
2022/02/01 02:36:04;;;;;;;15.27;6.05;;;4.70;90.00;;;;;;5041993;28;20044;-73
2022/02/01 02:38:43;;;;;;;19.40;6.93;;;4.70;90.10;;;;;;5036868;28;20033;-73
2022/02/01 02:46:44;;;;;;;15.32;6.18;;;4.60;90.00;;;;;;5040305;28;20033;-73
2022/02/01 02:49:15;;;;;;;15.40;6.57;;;4.60;90.10;;;;;;5039312;28;20480;-73
2022/02/01 02:51:41;;;;;;;15.98;6.57;;;4.60;90.10;;;;;;5040076;28;20130;-73
2022/02/01 02:54:12;;;;;;;20.83;7.78;;;4.60;90.10;;;;;;5042551;28;20100;-72
2022/02/01 02:56:41;;;;;;;16.83;6.30;;;4.50;90.10;;;;;;5037603;28;20116;-72
2022/02/01 02:59:07;;;;;;;17.10;7.03;;;4.60;90.20;;;;;;5039043;28;20139;-73
2022/02/01 03:01:33;;;;;;;14.75;7.05;;;4.60;90.10;;;;;;5038635;28;20064;-72
2022/02/01 03:03:59;;;;;;;17.73;7.07;;;4.60;90.00;;;;;;5037254;28;20403;-73
2022/02/01 03:06:24;;;;;;;19.77;7.32;;;4.60;89.80;;;;;;5040164;28;20036;-73
2022/02/01 03:08:51;;;;;;;21.08;7.60;;;4.60;90.00;;;;;;5043920;28;20072;-72
2022/02/01 03:11:17;;;;;;;15.85;6.90;;;4.60;90.00;;;;;;5037530;28;20017;-73
2022/02/01 03:13:50;;;;;;;17.70;7.47;;;4.60;90.10;;;;;;5039484;28;20519;-73
2022/02/01 03:21:32;;;;;;;19.98;7.07;;;4.60;90.10;;;;;;5035256;28;20094;-72
2022/02/01 03:23:57;;;;;;;17.20;6.40;;;4.50;90.20;;;;;;5037928;28;20060;-73
2022/02/01 03:26:23;;;;;;;16.83;7.85;;;4.50;90.30;;;;;;5037553;28;20120;-72
2022/02/01 03:28:49;;;;;;;19.50;7.43;;;4.50;90.10;;;;;;5036892;28;20028;-73
2022/02/01 03:31:14;;;;;;;14.35;7.63;;;4.60;90.00;;;;;;5039963;28;20025;-73
2022/02/01 03:33:40;;;;;;;22.10;8.05;;;4.60;89.90;;;;;;5036607;28;20527;-73
2022/02/01 03:36:06;;;;;;;24.50;8.32;;;4.60;89.60;;;;;;5037371;28;20029;-72
2022/02/01 03:38:32;;;;;;;17.35;8.20;;;4.60;90.20;;;;;;5037309;28;20065;-73
2022/02/01 03:40:58;;;;;;;24.35;8.70;;;4.60;89.80;;;;;;5036429;28;20088;-72
2022/02/01 03:43:24;;;;;;;19.67;9.23;;;4.60;89.60;;;;;;5038863;28;20044;-73
2022/02/01 03:45:49;;;;;;;22.10;9.02;;;4.60;89.80;;;;;;5042798;28;20112;-73
2022/02/01 03:48:15;;;;;;;21.02;8.57;;;4.60;89.80;;;;;;5036706;28;20040;-73
2022/02/01 03:50:42;;;;;;;26.35;9.65;;;4.60;89.90;;;;;;5037653;28;20030;-73
2022/02/01 03:53:09;;;;;;;15.98;8.23;;;4.50;90.00;;;;;;5033710;28;20103;-73
2022/02/01 03:55:36;;;;;;;21.52;8.38;;;4.50;90.10;;;;;;5034523;28;20064;-73
2022/02/01 03:58:03;;;;;;;19.10;8.68;;;4.60;90.10;;;;;;5036138;28;20106;-73
2022/02/01 04:00:29;;;;;;;20.73;9.00;;;4.60;90.10;;;;;;5039762;28;20029;-73
2022/02/01 04:02:57;;;;;;;20.02;8.15;;;4.60;90.10;;;;;;5042396;28;20409;-73
2022/02/01 04:05:22;;;;;;;23.33;9.05;;;4.60;90.00;;;;;;5034537;28;20538;-73
2022/02/01 04:07:48;;;;;;;20.98;8.48;;;4.60;89.80;;;;;;5043511;28;20021;-73
2022/02/01 04:10:15;;;;;;;18.08;8.32;;;4.60;89.90;;;;;;5034219;28;20025;-73
2022/02/01 04:12:42;;;;;;;23.48;8.73;;;4.60;90.00;;;;;;5043731;28;20033;-72
2022/02/01 04:15:09;;;;;;;19.58;8.90;;;4.60;90.10;;;;;;5036402;28;20020;-73
2022/02/01 04:17:35;;;;;;;22.40;8.45;;;4.60;90.20;;;;;;5036760;28;20742;-72
2022/02/01 04:20:01;;;;;;;19.40;8.40;;;4.70;89.80;;;;;;5039501;28;20040;-73
2022/02/01 04:22:27;;;;;;;16.98;7.63;;;4.70;89.50;;;;;;5032798;28;20030;-72
2022/02/01 04:24:52;;;;;;;23.50;9.00;;;4.70;89.60;;;;;;5041111;28;20029;-73
2022/02/01 04:27:30;;;;;;;19.95;7.95;;;4.70;89.50;;;;;;5034001;28;20109;-72
2022/02/01 04:30:07;;;;;;;21.98;8.70;;;4.70;89.40;;;;;;5034966;28;20087;-73
2022/02/01 04:32:39;;;;;;;20.08;7.97;;;4.70;89.10;;;;;;5037093;28;20036;-73
2022/02/01 04:35:08;;;;;;;27.10;8.55;;;4.70;88.70;;;;;;5035878;28;20743;-73
2022/02/01 04:37:34;;;;;;;19.40;7.25;;;4.70;88.80;;;;;;5039229;28;20397;-73
2022/02/01 04:40:00;;;;;;;23.33;8.93;;;4.70;88.90;;;;;;5035839;28;20025;-73
2022/02/01 04:42:29;;;;;;;22.35;8.40;;;4.70;88.60;;;;;;5035124;28;20041;-72
2022/02/01 04:44:55;;;;;;;17.85;7.47;;;4.60;88.80;;;;;;5038168;28;20033;-73
2022/02/01 04:47:21;;;;;;;21.30;7.43;;;4.60;89.00;;;;;;5031969;28;20824;-72
2022/02/01 04:49:47;;;;;;;18.88;7.43;;;4.70;89.00;;;;;;5037652;28;20056;-73
2022/02/01 04:52:13;;;;;;;22.15;7.93;;;4.70;88.90;;;;;;5034452;28;20075;-73
2022/02/01 04:54:39;;;;;;;17.17;8.20;;;4.70;89.00;;;;;;5036869;28;20568;-73
2022/02/01 04:57:05;;;;;;;19.98;8.25;;;4.70;88.90;;;;;;5040797;28;20032;-72
2022/02/01 04:59:31;;;;;;;19.88;8.50;;;4.70;89.50;;;;;;5031314;28;20041;-72
2022/02/01 05:01:56;;;;;;;20.60;8.13;;;4.70;89.60;;;;;;5039610;28;20025;-72
2022/02/01 05:04:22;;;;;;;18.63;8.23;;;4.60;89.40;;;;;;5033741;28;20396;-72
2022/02/01 05:06:54;;;;;;;26.05;8.45;;;4.60;90.10;;;;;;5036100;28;20452;-73
2022/02/01 05:09:22;;;;;;;22.30;9.40;;;4.40;90.10;;;;;;5039730;28;20061;-72
2022/02/01 05:11:50;;;;;;;19.55;7.85;;;4.40;90.10;;;;;;5035811;28;20036;-73
2022/02/01 05:14:23;;;;;;;15.02;8.15;;;4.40;90.40;;;;;;5039249;28;20029;-73
2022/02/01 05:19:32;;;;;;;17.00;8.18;;;4.30;90.60;;;;;;5040761;28;20765;-73
2022/02/01 05:22:01;;;;;;;16.60;8.40;;;4.30;90.80;;;;;;5040047;28;20757;-73
2022/02/01 05:24:27;;;;;;;18.52;8.13;;;4.30;90.90;;;;;;5038510;28;20108;-72
2022/02/01 05:26:57;;;;;;;18.13;8.75;;;4.30;90.80;;;;;;5042759;28;20025;-73
2022/02/01 05:29:23;;;;;;;20.98;8.73;;;4.30;90.90;;;;;;5035357;28;20041;-73
2022/02/01 05:31:51;;;;;;;17.50;8.45;;;4.30;90.90;;;;;;5043473;28;20037;-73
2022/02/01 05:34:18;;;;;;;19.52;9.88;;;4.30;91.20;;;;;;5035645;28;20072;-73
2022/02/01 05:36:44;;;;;;;23.15;9.85;;;4.30;91.10;;;;;;5040211;28;20041;-73
2022/02/01 05:39:28;;;;;;;18.48;8.80;;;4.20;91.10;;;;;;5041377;28;20032;-73
2022/02/01 05:41:56;;;;;;;19.38;8.80;;;4.30;91.20;;;;;;5038037;28;20131;-73
2022/02/01 05:44:22;;;;;;;17.83;9.05;;;4.30;91.30;;;;;;5041723;28;20075;-73
2022/02/01 05:46:47;;;;;;;16.92;8.73;;;4.30;91.30;;;;;;5036310;28;20055;-73
2022/02/01 05:49:13;;;;;;;21.63;8.90;;;4.30;91.20;;;;;;5048602;28;20748;-73
2022/02/01 05:51:39;;;;;;;17.52;8.90;;;4.30;91.40;;;;;;5023330;28;20041;-72
2022/02/01 05:54:05;;;;;;;22.42;8.30;;;4.30;91.50;;;;;;5039338;28;20037;-72
2022/02/01 05:56:31;;;;;;;22.52;9.68;;;4.30;91.50;;;;;;5040206;28;20037;-72
2022/02/01 05:58:57;;;;;;;15.70;8.23;;;4.30;91.40;;;;;;5039247;28;20055;-72
2022/02/01 06:01:23;;;;;;;19.00;8.88;;;4.30;91.40;;;;;;5040586;28;20033;-72
2022/02/01 06:03:48;;;;;;;20.80;8.57;;;4.30;91.40;;;;;;5044027;28;20078;-73
2022/02/01 06:06:14;;;;;;;20.13;8.27;;;4.20;91.60;;;;;;5038883;28;20074;-72
2022/02/01 06:08:40;;;;;;;23.10;8.70;;;4.20;91.70;;;;;;5043631;28;20068;-72
2022/02/01 06:11:06;;;;;;;20.92;8.48;;;4.20;91.50;;;;;;5040048;28;20048;-72
2022/02/01 06:13:36;;;;;;;19.63;9.05;;;4.20;91.60;;;;;;5045325;28;20443;-73
2022/02/01 06:16:05;;;;;;;22.33;8.93;;;4.20;91.60;;;;;;5040786;28;20037;-73
2022/02/01 06:18:31;;;;;;;20.27;9.05;;;4.20;91.60;;;;;;5021348;28;20734;-72
2022/02/01 06:20:57;;;;;;;21.10;8.90;;;4.20;91.50;;;;;;5041989;28;20033;-73
2022/02/01 06:23:22;;;;;;;21.70;8.25;;;4.20;91.60;;;;;;5043467;28;20029;-72
2022/02/01 06:25:49;;;;;;;20.98;8.30;;;4.20;91.70;;;;;;5039270;28;20485;-72
2022/02/01 06:28:34;;;;;;;18.38;7.90;;;4.20;91.60;;;;;;5035685;28;20041;-73
2022/02/01 06:31:00;;;;;;;14.90;7.63;;;4.20;91.70;;;;;;5038941;28;20033;-72
2022/02/01 06:33:26;;;;;;;17.80;7.45;;;4.20;91.80;;;;;;5040712;28;20068;-72
2022/02/01 06:35:53;;;;;;;21.27;8.00;;;4.20;91.60;;;;;;5038511;28;20037;-73
2022/02/01 06:38:18;;;;;;;18.92;7.50;;;4.20;91.60;;;;;;5044040;28;20404;-72
2022/02/01 06:40:46;;;;;;;21.13;7.38;;;4.20;91.50;;;;;;5038015;28;20035;-72
2022/02/01 06:43:13;;;;;;;17.70;7.45;;;4.10;91.70;;;;;;5037861;28;20399;-72
2022/02/01 06:45:40;;;;;;;17.63;7.13;;;4.20;91.70;;;;;;5039824;28;20029;-72
2022/02/01 06:48:05;;;;;;;15.07;6.78;;;4.10;91.70;;;;;;5036960;28;20739;-72
2022/02/01 06:50:31;;;;;;;17.40;6.70;;;4.10;91.80;;;;;;5036867;28;20036;-73
2022/02/01 06:52:57;;;;;;;16.50;6.72;;;4.10;91.90;;;;;;5043622;28;20116;-72
2022/02/01 06:55:45;;;;;;;18.38;6.55;;;4.00;91.70;;;;;;5038479;28;20037;-72
2022/02/01 06:58:15;;;;;;;14.63;7.18;;;4.00;92.00;;;;;;5038335;28;20029;-72
2022/02/01 07:00:42;;;;;;;17.77;6.40;;;4.00;92.20;;;;;;5034525;28;20139;-72
2022/02/01 07:03:08;;;;;;;15.18;5.65;;;4.00;92.10;;;;;;5042047;28;20021;-72
2022/02/01 07:05:33;;;;;;;15.57;6.75;;;4.00;92.20;;;;;;5036313;28;20038;-72
2022/02/01 07:07:59;;;;;;;16.42;5.47;;;4.10;92.20;;;;;;5035863;28;20033;-72
2022/02/01 07:10:25;;;;;;;11.73;4.85;;;4.10;92.00;;;;;;5037821;28;20037;-72
2022/02/01 07:12:51;;;;;;;14.20;5.93;;;4.10;92.00;;;;;;5036841;28;20504;-73
2022/02/01 07:15:17;;;;;;;14.70;5.03;;;4.20;92.10;;;;;;5040297;28;20047;-72
2022/02/01 07:17:53;;;;;;;12.18;4.82;;;4.20;92.00;;;;;;5022502;28;20036;-73
2022/02/01 07:20:20;;;;;;;22.33;6.53;;;4.20;91.70;;;;;;5039436;28;20059;-72
2022/02/01 07:22:48;;;;;;;9.73;5.55;;;4.30;92.00;;;;;;5039916;28;20048;-72
2022/02/01 07:25:46;;;;;;;15.40;5.32;;;4.30;91.90;;;;;;5037249;28;20768;-73
2022/02/01 07:28:05;;;;;;;15.63;4.90;;;4.40;91.90;;;;;;5041803;28;20041;-73
2022/02/01 07:30:31;;;;;;;11.90;5.50;;;4.40;91.70;;;;;;5034326;28;20084;-72
2022/02/01 07:33:00;;;;;;;13.50;4.50;;;4.40;91.70;;;;;;5041858;28;20021;-72
2022/02/01 07:35:26;;;;;;;14.40;4.53;;;4.40;91.60;;;;;;5035784;28;20437;-72
2022/02/01 07:37:53;;;;;;;16.10;4.88;;;4.50;91.60;;;;;;5038185;28;20021;-73
2022/02/01 07:40:19;;;;;;;15.68;4.53;;;4.50;91.60;;;;;;5036586;28;20112;-72
2022/02/01 07:42:44;;;;;;;25.63;5.72;;;4.50;91.40;;;;;;5038436;28;20619;-72
2022/02/01 07:45:12;;;;;;;15.75;5.57;;;4.50;91.50;;;;;;5041772;28;20032;-72
2022/02/01 07:47:37;;;;;;;18.85;4.53;;;4.50;91.50;;;;;;5034870;28;20025;-72
2022/02/01 07:50:05;;;;;;;12.25;4.53;;;4.60;91.40;;;;;;5051734;22;20049;-73
2022/02/01 07:52:31;;;;;;;20.38;5.47;;;4.60;91.40;;;;;;5031455;28;20111;-73
2022/02/01 07:54:57;;;;;;;16.23;4.70;;;4.70;91.30;;;;;;5022422;28;20068;-73
2022/02/01 07:57:22;;;;;;;13.65;4.88;;;4.70;91.40;;;;;;5032812;28;20044;-73
2022/02/01 07:59:48;;;;;;;20.75;5.50;;;4.70;91.30;;;;;;5031912;28;20112;-73
2022/02/01 08:02:22;;;;;;;17.40;5.30;;;4.80;91.30;;;;;;5031996;28;20536;-73
2022/02/01 08:04:49;;;;;;;16.23;4.15;;;4.90;91.10;;;;;;5030400;28;20029;-72
2022/02/01 08:07:19;;;;;;;11.43;4.07;;;4.90;90.80;;;;;;5013717;28;20744;-72
2022/02/01 08:09:48;;;;;;;18.25;4.40;;;4.90;90.70;;;;;;5029937;28;20080;-72
2022/02/01 08:12:37;;;;;;;16.35;4.55;;;5.00;91.20;;;;;;5032900;28;20868;-72
2022/02/01 08:20:13;;;;;;;23.10;5.38;;;5.10;90.60;;;;;;5031215;28;20192;-72
2022/02/01 08:25:06;;;;;;;22.13;4.47;;;5.20;90.70;;;;;;5032986;28;20127;-73
2022/02/01 08:27:32;;;;;;;13.85;4.30;;;5.20;90.50;;;;;;5032362;28;20029;-72
2022/02/01 08:29:58;;;;;;;21.45;4.65;;;5.30;90.40;;;;;;5033947;28;20052;-73
2022/02/01 08:32:24;;;;;;;13.82;4.18;;;5.30;90.30;;;;;;5030214;28;20120;-72
2022/02/01 08:34:50;;;;;;;13.63;3.42;;;5.40;90.30;;;;;;5033138;28;20125;-72
2022/02/01 08:37:16;;;;;;;10.38;3.08;;;5.40;90.10;;;;;;5014887;28;20501;-72
2022/02/01 08:39:41;;;;;;;17.63;3.88;;;5.40;90.30;;;;;;5030777;28;20861;-72
2022/02/01 08:42:07;;;;;;;11.23;4.03;;;5.50;90.00;;;;;;5036045;28;20017;-72
2022/02/01 08:44:35;;;;;;;12.10;3.63;;;5.50;89.60;;;;;;5030388;28;20480;-72
2022/02/01 08:47:00;;;;;;;10.98;3.08;;;5.50;90.00;;;;;;5037045;28;20127;-72
2022/02/01 08:49:26;;;;;;;19.75;4.22;;;5.50;89.60;;;;;;5011100;28;20133;-72
2022/02/01 08:52:02;;;;;;;12.20;3.17;;;5.50;89.90;;;;;;5031370;28;20041;-72
2022/02/01 08:54:30;;;;;;;22.95;4.13;;;5.50;89.70;;;;;;5029475;28;20037;-72
2022/02/01 08:59:41;;;;;;;10.35;2.47;;;5.50;90.00;;;;;;5028576;28;20037;-72
2022/02/01 09:02:09;;;;;;;14.52;2.25;;;5.60;90.00;;;;;;5015419;28;20141;-72
2022/02/01 09:04:35;;;;;;;15.10;2.72;;;5.60;89.20;;;;;;5030169;28;20108;-72
2022/02/01 09:07:02;;;;;;;13.45;2.63;;;5.70;89.60;;;;;;5024548;28;20021;-72
2022/02/01 09:09:30;;;;;;;8.77;2.80;;;5.70;89.40;;;;;;5010975;28;20639;-72
2022/02/01 09:11:55;;;;;;;13.18;2.40;;;5.70;89.00;;;;;;5015064;28;20082;-73
2022/02/01 09:14:22;;;;;;;15.63;2.80;;;5.80;88.60;;;;;;5029815;28;20037;-72
2022/02/01 09:16:48;;;;;;;12.07;2.33;;;5.80;88.50;;;;;;5029761;28;20909;-72
2022/02/01 09:19:14;;;;;;;11.38;2.47;;;5.80;88.60;;;;;;5032358;28;20033;-73
2022/02/01 09:21:40;;;;;;;16.70;2.95;;;5.90;88.40;;;;;;5019973;28;20060;-73
2022/02/01 09:24:06;;;;;;;14.30;3.35;;;5.90;88.40;;;;;;5031067;28;20116;-70
2022/02/01 09:26:32;;;;;;;10.10;3.00;;;5.90;87.90;;;;;;5021685;28;20036;-71
2022/02/01 09:28:58;;;;;;;15.80;2.85;;;5.90;88.10;;;;;;5035803;28;20095;-73
2022/02/01 09:31:24;;;;;;;15.45;3.25;;;5.90;88.40;;;;;;5029182;28;20034;-72
2022/02/01 09:33:49;;;;;;;10.73;2.33;;;5.90;88.80;;;;;;5029562;28;20068;-71
2022/02/01 09:36:15;;;;;;;10.80;2.75;;;5.90;87.50;;;;;;5030994;28;20033;-71
2022/02/01 09:38:41;;;;;;;11.00;3.08;;;5.90;88.20;;;;;;5028398;28;20447;-71
2022/02/01 09:41:07;;;;;;;14.35;2.42;;;6.00;88.50;;;;;;5031333;28;20043;-69
2022/02/01 09:43:33;;;;;;;12.95;2.17;;;5.90;87.70;;;;;;5029652;28;20482;-69
2022/02/01 09:46:00;;;;;;;10.68;2.67;;;6.00;88.20;;;;;;5016777;28;20543;-73
2022/02/01 09:48:27;;;;;;;11.10;2.38;;;6.10;88.00;;;;;;5012968;28;20033;-71
2022/02/01 09:50:53;;;;;;;14.82;3.67;;;6.10;88.10;;;;;;5028327;28;20129;-71
2022/02/01 09:53:19;;;;;;;11.20;3.28;;;6.10;87.90;;;;;;5030046;28;20082;-68
2022/02/01 09:55:47;;;;;;;13.77;2.83;;;6.20;87.80;;;;;;5012339;28;20037;-73
2022/02/01 09:58:13;;;;;;;15.90;2.40;;;6.30;87.50;;;;;;5031567;28;20942;-72
2022/02/01 10:00:45;;;;;;;12.45;2.33;;;6.30;86.90;;;;;;5029621;28;20045;-71
2022/02/01 10:03:19;;;;;;;15.27;2.25;;;6.40;86.30;;;;;;5031627;28;20049;-72
2022/02/01 10:06:03;;;;;;;12.20;2.75;;;6.30;86.40;;;;;;5025776;28;20685;-78
2022/02/01 10:08:29;;;;;;;12.77;1.80;;;6.30;87.20;;;;;;5029979;28;20200;-70
2022/02/01 10:10:55;;;;;;;8.90;2.03;;;6.30;86.40;;;;;;5035609;28;20111;-72
2022/02/01 10:13:21;;;;;;;19.95;3.30;;;6.40;87.10;;;;;;5035920;28;20033;-70
2022/02/01 10:16:11;;;;;;;12.50;2.70;;;6.40;86.40;;;;;;5035503;28;20048;-73
2022/02/01 10:18:36;;;;;;;19.25;3.00;;;6.40;86.90;;;;;;5034777;28;20478;-73
2022/02/01 10:21:13;;;;;;;22.88;2.53;;;6.50;87.10;;;;;;5017876;28;20078;-72
2022/02/01 10:23:41;;;;;;;14.43;3.50;;;6.50;86.30;;;;;;5038592;28;20065;-72
2022/02/01 10:26:16;;;;;;;14.05;3.03;;;6.60;86.20;;;;;;5019170;28;20126;-71
2022/02/01 10:29:04;;;;;;;11.57;2.95;;;6.50;85.10;;;;;;5035068;28;20037;-69
2022/02/01 10:31:49;;;;;;;10.45;2.50;;;6.50;86.10;;;;;;5015645;28;20157;-69
2022/02/01 10:36:53;;;;;;;7.55;2.20;;;6.60;85.70;;;;;;5035575;28;20021;-68
2022/02/01 10:39:25;;;;;;;10.88;2.20;;;6.60;85.20;;;;;;5013982;28;20056;-71
2022/02/01 10:42:00;;;;;;;16.55;2.90;;;6.60;85.30;;;;;;5032633;28;20105;-68
2022/02/01 10:44:46;;;;;;;11.70;2.30;;;6.60;84.90;;;;;;5038146;28;20056;-69
2022/02/01 10:47:40;;;;;;;6.87;1.67;;;6.70;84.00;;;;;;5032848;28;20504;-73
2022/02/01 10:50:13;;;;;;;12.65;2.20;;;6.70;84.60;;;;;;5031585;28;20033;-72
2022/02/01 10:52:47;;;;;;;15.23;1.95;;;6.70;85.50;;;;;;5016701;28;20116;-69
2022/02/01 10:55:15;;;;;;;13.60;2.35;;;6.60;84.80;;;;;;5034781;28;20036;-68
2022/02/01 10:57:41;;;;;;;16.85;2.85;;;6.50;84.70;;;;;;5025360;28;20021;-67
2022/02/01 11:00:09;;;;;;;13.68;2.35;;;6.40;85.60;;;;;;5032501;28;20033;-71
2022/02/01 11:02:42;;;;;;;16.05;3.10;;;6.40;86.00;;;;;;5029929;28;20022;-72
2022/02/01 11:05:10;;;;;;;16.42;4.60;;;6.40;86.00;;;;;;5033261;28;20031;-71
2022/02/01 11:07:37;;;;;;;16.75;6.15;;;6.40;86.40;;;;;;5032429;28;20568;-67
2022/02/01 11:10:10;;;;;;;32.15;11.65;;;6.40;86.10;;;;;;5033074;28;20037;-67
2022/02/01 11:12:38;;;;;;;34.85;14.25;;;6.40;86.30;;;;;;5032761;28;20576;-67
2022/02/01 11:15:04;;;;;;;21.35;5.35;;;6.50;86.40;;;;;;5033186;28;20033;-68
2022/02/01 11:17:41;;;;;;;17.08;5.72;;;6.60;86.30;;;;;;5028799;28;20480;-72
2022/02/01 11:20:07;;;;;;;25.30;10.15;;;6.60;85.80;;;;;;5028314;28;20025;-68
2022/02/01 11:22:39;;;;;;;21.98;8.68;;;6.60;85.90;;;;;;5029788;28;20041;-70
2022/02/01 11:25:25;;;;;;;20.27;7.15;;;6.50;85.90;;;;;;5035551;28;20039;-70
2022/02/01 11:30:49;;;;;;;20.55;8.23;;;6.50;85.80;;;;;;5034233;28;20743;-69
2022/02/01 11:33:16;;;;;;;9.45;3.42;;;6.50;85.20;;;;;;5033853;28;20029;-67
2022/02/01 11:35:42;;;;;;;14.52;3.78;;;6.50;85.60;;;;;;5022289;28;20021;-67
2022/02/01 11:38:34;;;;;;;18.60;2.80;;;6.40;85.80;;;;;;5036467;28;20029;-67
2022/02/01 11:41:06;;;;;;;9.65;2.90;;;6.10;85.90;;;;;;5031870;28;20053;-67
2022/02/01 11:43:32;;;;;;;13.70;2.53;;;5.90;87.70;;;;;;5033465;28;20021;-69
2022/02/01 11:46:06;;;;;;;14.52;3.75;;;5.90;88.10;;;;;;5032107;28;20397;-68
2022/02/01 11:48:36;;;;;;;11.82;2.58;;;6.10;87.70;;;;;;5031967;28;20033;-71
2022/02/01 11:51:06;;;;;;;13.70;2.83;;;6.20;86.70;;;;;;5031212;28;20033;-72
2022/02/01 11:53:41;;;;;;;10.43;2.53;;;6.30;86.60;;;;;;5031786;28;20045;-72
2022/02/01 11:56:09;;;;;;;10.55;2.13;;;6.30;85.50;;;;;;5030992;28;20024;-68
2022/02/01 11:58:46;;;;;;;13.00;2.58;;;6.30;85.30;;;;;;5033612;28;20028;-68
2022/02/01 12:01:24;;;;;;;11.82;1.88;;;6.40;84.90;;;;;;5031264;28;20063;-68
2022/02/01 12:04:00;;;;;;;9.57;1.50;;;6.20;84.70;;;;;;5030337;28;21024;-71
2022/02/01 12:06:35;;;;;;;;;;;6.10;85.70;;;;;;5031994;28;20030;-71
2022/02/01 12:09:09;;;;;;;11.10;1.88;;;6.10;86.10;;;;;;5028083;28;19916;-68
2022/02/01 12:11:36;;;;;;;11.70;1.63;;;6.20;85.80;;;;;;5023558;28;20028;-72
2022/02/01 12:14:05;;;;;;;11.70;2.55;;;6.30;85.10;;;;;;5034880;28;20030;-72
2022/02/01 12:16:31;;;;;;;9.07;2.20;;;6.30;84.80;;;;;;5013849;28;20033;-69
2022/02/01 12:19:15;;;;;;;6.28;1.30;;;6.20;84.10;;;;;;5018165;28;20028;-70
2022/02/01 12:22:25;;;;;;;10.82;2.03;;;6.10;85.50;;;;;;5030897;28;20151;-71
2022/02/01 12:24:52;;;;;;;9.90;1.40;;;6.00;85.30;;;;;;5010411;28;20969;-68
2022/02/01 12:27:18;;;;;;;7.13;1.80;;;5.90;85.40;;;;;;5032400;28;20100;-70
2022/02/01 12:29:44;;;;;;;12.75;1.90;;;6.00;87.30;;;;;;5013334;28;20120;-72
2022/02/01 12:32:10;;;;;;;12.00;1.55;;;6.00;85.80;;;;;;5034364;28;20423;-69
2022/02/01 12:34:36;;;;;;;9.00;2.03;;;6.10;87.00;;;;;;5028276;28;20044;-70
2022/02/01 12:37:03;;;;;;;9.18;3.65;;;6.20;86.40;;;;;;5035217;28;20115;-70
2022/02/01 12:39:33;;;;;;;13.50;5.68;;;6.30;86.60;;;;;;5029097;28;20725;-69
2022/02/01 12:42:07;;;;;;;48.85;23.38;;;6.20;86.30;;;;;;5033739;28;20033;-71
2022/02/01 12:47:05;;;;;;;6.65;1.98;;;6.20;87.50;;;;;;5031697;28;20670;-71
2022/02/01 12:49:36;;;;;;;8.75;1.77;;;6.20;87.40;;;;;;5028603;28;20065;-72
2022/02/01 12:52:05;;;;;;;8.65;2.38;;;5.80;88.90;;;;;;5030777;28;20021;-70
2022/02/01 12:54:36;;;;;;;6.60;1.48;;;5.40;90.70;;;;;;5031232;28;20021;-72
2022/02/01 12:57:18;;;;;;;7.80;2.30;;;5.10;91.40;;;;;;5030158;28;20465;-64
2022/02/01 12:59:52;;;;;;;12.25;2.08;;;5.10;91.90;;;;;;5031231;28;20033;-71
2022/02/01 13:02:26;;;;;;;4.95;1.45;;;5.30;92.40;;;;;;5032757;28;20025;-67
2022/02/01 13:04:54;;;;;;;8.00;1.90;;;5.40;91.90;;;;;;5027670;28;20026;-68
2022/02/01 13:21:00;;;;;;;5.70;1.45;;;5.00;92.90;;;;;;5036013;28;20028;-68
2022/02/01 13:23:43;;;;;;;12.70;2.10;;;5.10;92.60;;;;;;5031531;28;20097;-70
2022/02/01 13:26:11;;;;;;;6.70;2.00;;;4.90;93.10;;;;;;5028320;28;20025;-69
2022/02/01 13:28:41;;;;;;;5.93;2.47;;;4.70;93.60;;;;;;5031546;28;20037;-68
2022/02/01 13:31:12;;;;;;;10.00;2.50;;;4.60;94.20;;;;;;5034016;28;20029;-68
2022/02/01 13:33:45;;;;;;;5.47;2.25;;;4.60;94.20;;;;;;5031371;28;20025;-69
2022/02/01 13:36:12;;;;;;;7.97;2.50;;;4.50;94.40;;;;;;5034701;28;20029;-70
2022/02/01 13:38:56;;;;;;;4.68;2.00;;;4.50;94.80;;;;;;5034638;28;20441;-70
2022/02/01 13:41:24;;;;;;;4.03;1.77;;;4.40;94.80;;;;;;5033931;28;20056;-70
2022/02/01 13:43:52;;;;;;;6.70;2.03;;;4.40;94.70;;;;;;5036130;28;20056;-70
2022/02/01 13:46:19;;;;;;;9.20;2.60;;;4.30;95.00;;;;;;5035782;28;20041;-70
2022/02/01 13:48:56;;;;;;;6.13;2.00;;;4.50;95.00;;;;;;5018404;28;20033;-70
2022/02/01 13:51:22;;;;;;;4.60;1.75;;;4.50;94.80;;;;;;5035249;28;20148;-71
2022/02/01 13:54:04;;;;;;;7.45;2.00;;;4.50;94.40;;;;;;5013387;28;20112;-71
2022/02/01 13:56:35;;;;;;;9.18;2.00;;;4.40;95.00;;;;;;5035520;28;20033;-72
2022/02/01 13:59:10;;;;;;;6.57;2.13;;;4.30;95.10;;;;;;5036310;28;20041;-69
2022/02/01 14:01:37;;;;;;;3.33;1.83;;;4.10;95.20;;;;;;5034110;28;20077;-69
2022/02/01 14:04:14;;;;;;;7.80;2.10;;;4.00;96.10;;;;;;5038280;28;20037;-65
2022/02/01 14:09:34;;;;;;;7.55;2.78;;;3.90;96.00;;;;;;5030505;28;20028;-71
2022/02/01 14:28:01;;;;;;;5.32;2.30;;;3.80;96.40;;;;;;5037316;28;20056;-74
2022/02/01 14:33:52;;;;;;;3.72;1.67;;;3.80;96.60;;;;;;5000482;28;20125;-75
2022/02/01 14:36:18;;;;;;;3.90;1.83;;;3.80;96.20;;;;;;5026813;28;20041;-74
2022/02/01 14:46:54;;;;;;;2.72;1.60;;;3.80;96.40;;;;;;5044067;28;20492;-72
2022/02/01 14:49:23;;;;;;;8.98;1.90;;;3.90;96.30;;;;;;5034523;28;20121;-71
2022/02/01 14:51:51;;;;;;;4.30;1.98;;;3.90;96.50;;;;;;5037325;28;20037;-71
2022/02/01 14:54:19;;;;;;;6.57;1.88;;;4.00;96.10;;;;;;5043172;28;20033;-71
2022/02/01 14:56:50;;;;;;;3.03;1.73;;;4.10;96.00;;;;;;5034728;28;20404;-66
2022/02/01 15:05:03;;;;;;;3.92;1.65;;;4.40;95.70;;;;;;5042381;28;20485;-71
2022/02/01 15:12:59;;;;;;;4.38;2.50;;;4.70;95.40;;;;;;5033862;28;20045;-71
2022/02/01 15:15:25;;;;;;;8.57;5.30;;;4.50;95.80;;;;;;5016814;28;20033;-70
2022/02/01 15:17:51;;;;;;;8.90;5.00;;;4.50;96.00;;;;;;5035046;28;20128;-70
2022/02/01 15:20:16;;;;;;;6.13;2.88;;;4.70;95.90;;;;;;5036888;28;20946;-69
2022/02/01 15:22:44;;;;;;;7.32;3.75;;;4.70;95.70;;;;;;4989849;28;20053;-70
2022/02/01 15:25:09;;;;;;;7.20;2.30;;;4.80;95.60;;;;;;4991103;28;20108;-71
2022/02/01 15:27:36;;;;;;;3.90;2.10;;;4.80;95.70;;;;;;4975734;28;20031;-70
2022/02/01 15:30:04;;;;;;;3.67;2.05;;;4.90;95.30;;;;;;4977421;28;20035;-69
2022/02/01 15:32:29;;;;;;;2.72;2.20;;;4.90;95.20;;;;;;5006442;28;20491;-70
2022/02/01 15:34:55;;;;;;;6.50;2.38;;;5.00;95.00;;;;;;4977842;28;20034;-69
2022/02/01 15:37:22;;;;;;;5.82;2.53;;;5.10;95.10;;;;;;4973281;28;20113;-68